createdAt,value
2018-09-11T00:01:18.695Z,99.90
2018-09-11T00:03:46.451Z,99.90
2018-09-11T00:06:14.119Z,99.90
2018-09-11T00:08:45.598Z,99.90
2018-09-11T00:11:13.335Z,99.90
2018-09-11T00:13:40.991Z,99.90
2018-09-11T00:16:08.690Z,99.90
2018-09-11T00:18:36.418Z,99.90
2018-09-11T00:21:04.140Z,99.90
2018-09-11T00:23:31.787Z,99.90
2018-09-11T00:25:59.458Z,99.90
2018-09-11T00:28:27.158Z,99.90
2018-09-11T00:30:54.873Z,99.90
2018-09-11T00:33:22.483Z,99.90
2018-09-11T00:35:53.466Z,99.90
2018-09-11T00:38:21.162Z,99.90
2018-09-11T00:40:48.804Z,99.90
2018-09-11T00:43:16.668Z,99.90
2018-09-11T00:45:44.371Z,99.90
2018-09-11T00:48:15.491Z,99.90
2018-09-11T00:50:43.197Z,99.90
2018-09-11T00:53:10.870Z,99.90
2018-09-11T00:55:38.534Z,99.90
2018-09-11T00:58:06.204Z,99.90
2018-09-11T01:00:33.882Z,99.90
2018-09-11T01:03:01.547Z,99.90
2018-09-11T01:05:29.287Z,99.90
2018-09-11T01:07:57.990Z,99.90
2018-09-11T01:10:25.671Z,99.90
2018-09-11T01:12:53.394Z,99.90
2018-09-11T01:15:21.079Z,99.90
2018-09-11T01:17:48.756Z,99.90
2018-09-11T01:20:16.510Z,99.90
2018-09-11T01:22:44.114Z,99.90
2018-09-11T01:25:11.742Z,99.90
2018-09-11T01:27:39.359Z,99.90
2018-09-11T01:30:07.126Z,99.90
2018-09-11T01:32:34.784Z,99.90
2018-09-11T01:35:02.516Z,99.90
2018-09-11T01:37:30.174Z,99.90
2018-09-11T01:39:57.874Z,99.90
2018-09-11T01:42:25.567Z,99.90
2018-09-11T01:44:53.310Z,99.90
2018-09-11T01:47:21.016Z,99.90
2018-09-11T01:49:48.675Z,99.90
2018-09-11T01:52:16.351Z,99.90
2018-09-11T01:54:44.060Z,99.90
2018-09-11T01:57:11.762Z,99.90
2018-09-11T01:59:39.436Z,99.90
2018-09-11T02:02:07.110Z,99.90
2018-09-11T02:04:34.799Z,99.90
2018-09-11T02:07:02.506Z,99.90
2018-09-11T02:09:30.167Z,99.90
2018-09-11T02:11:57.851Z,99.90
2018-09-11T02:14:25.514Z,99.90
2018-09-11T02:16:53.219Z,99.90
2018-09-11T02:19:20.879Z,99.90
2018-09-11T02:21:48.514Z,99.90
2018-09-11T02:24:16.238Z,99.90
2018-09-11T02:26:43.950Z,99.90
2018-09-11T02:29:11.618Z,99.90
2018-09-11T02:31:39.340Z,99.90
2018-09-11T02:34:07.019Z,99.90
2018-09-11T02:36:34.715Z,99.90
2018-09-11T02:39:02.948Z,99.90
2018-09-11T02:41:30.655Z,99.90
2018-09-11T02:43:58.322Z,99.90
2018-09-11T02:46:25.979Z,99.90
2018-09-11T02:48:53.671Z,99.90
2018-09-11T02:51:21.323Z,99.90
2018-09-11T02:53:49.055Z,99.90
2018-09-11T02:56:16.734Z,99.90
2018-09-11T02:58:44.420Z,99.90
2018-09-11T03:01:12.131Z,99.90
2018-09-11T03:03:39.763Z,99.90
2018-09-11T03:06:07.543Z,99.90
2018-09-11T03:08:35.171Z,99.90
2018-09-11T03:11:02.878Z,99.90
2018-09-11T03:13:30.450Z,99.90
2018-09-11T03:15:58.138Z,99.90
2018-09-11T03:18:25.847Z,99.90
2018-09-11T03:20:53.507Z,99.90
2018-09-11T03:23:21.166Z,99.90
2018-09-11T03:25:48.831Z,99.90
2018-09-11T03:28:16.520Z,99.90
2018-09-11T03:30:44.230Z,99.90
2018-09-11T03:33:11.937Z,99.90
2018-09-11T03:35:39.642Z,99.90
2018-09-11T03:38:07.269Z,99.90
2018-09-11T03:40:34.961Z,99.90
2018-09-11T03:43:02.669Z,99.90
2018-09-11T03:45:30.355Z,99.90
2018-09-11T03:47:58.040Z,99.90
2018-09-11T03:50:25.758Z,99.90
2018-09-11T03:52:53.684Z,99.90
2018-09-11T03:55:21.415Z,99.90
2018-09-11T03:57:49.119Z,99.90
2018-09-11T04:00:17.193Z,99.90
2018-09-11T04:02:46.903Z,99.90
2018-09-11T04:05:14.608Z,99.90
2018-09-11T04:07:42.346Z,99.90
2018-09-11T04:10:10.026Z,99.90
2018-09-11T04:12:37.798Z,99.90
2018-09-11T04:15:05.531Z,99.90
2018-09-11T04:17:38.362Z,99.90
2018-09-11T04:20:06.142Z,99.90
2018-09-11T04:22:33.816Z,99.90
2018-09-11T04:25:01.466Z,99.90
2018-09-11T04:27:29.193Z,99.90
2018-09-11T04:29:59.978Z,99.90
2018-09-11T04:32:28.483Z,99.90
2018-09-11T04:34:56.169Z,99.90
2018-09-11T04:37:23.850Z,99.90
2018-09-11T04:39:51.544Z,99.90
2018-09-11T04:42:19.335Z,99.90
2018-09-11T04:44:46.987Z,99.90
2018-09-11T04:47:14.629Z,99.90
2018-09-11T04:49:42.351Z,99.90
2018-09-11T04:52:10.699Z,99.90
2018-09-11T04:54:38.419Z,99.90
2018-09-11T04:57:06.096Z,99.90
2018-09-11T04:59:33.764Z,99.90
2018-09-11T05:02:01.472Z,99.90
2018-09-11T05:04:29.178Z,99.90
2018-09-11T05:06:56.825Z,99.90
2018-09-11T05:09:24.508Z,99.90
2018-09-11T05:11:52.200Z,99.90
2018-09-11T05:14:19.886Z,99.90
2018-09-11T05:16:47.500Z,99.90
2018-09-11T05:19:15.309Z,99.90
2018-09-11T05:21:42.934Z,99.90
2018-09-11T05:24:10.578Z,99.90
2018-09-11T05:26:38.282Z,99.90
2018-09-11T05:29:06.182Z,99.90
2018-09-11T05:31:33.887Z,99.90
2018-09-11T05:34:01.543Z,99.90
2018-09-11T05:36:29.195Z,99.90
2018-09-11T05:38:56.913Z,99.90
2018-09-11T05:41:24.622Z,99.90
2018-09-11T05:43:52.346Z,99.90
2018-09-11T05:46:20.033Z,99.90
2018-09-11T05:48:47.761Z,99.90
2018-09-11T05:51:15.570Z,99.90
2018-09-11T05:53:43.233Z,99.90
2018-09-11T05:56:10.950Z,99.90
2018-09-11T05:58:38.623Z,99.90
2018-09-11T06:01:06.315Z,99.90
2018-09-11T06:03:34.022Z,99.90
2018-09-11T06:06:01.735Z,99.90
2018-09-11T06:08:29.415Z,99.90
2018-09-11T06:10:57.091Z,99.90
2018-09-11T06:13:25.758Z,99.90
2018-09-11T06:15:53.383Z,99.90
2018-09-11T06:18:21.065Z,99.90
2018-09-11T06:20:48.888Z,99.90
2018-09-11T06:23:16.539Z,99.90
2018-09-11T06:25:44.256Z,99.90
2018-09-11T06:28:11.955Z,99.90
2018-09-11T06:30:39.856Z,99.90
2018-09-11T06:33:07.598Z,99.90
2018-09-11T06:35:35.340Z,99.90
2018-09-11T06:38:03.031Z,99.90
2018-09-11T06:40:30.830Z,99.90
2018-09-11T06:42:58.559Z,99.90
2018-09-11T06:45:26.172Z,99.90
2018-09-11T06:47:53.895Z,99.90
2018-09-11T06:50:21.607Z,99.90
2018-09-11T06:52:49.270Z,99.90
2018-09-11T06:55:16.978Z,99.90
2018-09-11T06:57:44.638Z,99.90
2018-09-11T07:00:12.350Z,99.90
2018-09-11T07:02:40.066Z,99.90
2018-09-11T07:05:07.726Z,99.90
2018-09-11T07:07:35.403Z,99.90
2018-09-11T07:10:03.199Z,99.90
2018-09-11T07:12:30.919Z,99.90
2018-09-11T07:14:58.593Z,99.90
2018-09-11T07:17:26.311Z,99.90
2018-09-11T07:19:54.105Z,99.90
2018-09-11T07:22:21.626Z,99.90
2018-09-11T07:24:49.760Z,99.90
2018-09-11T07:27:21.118Z,99.90
2018-09-11T07:29:48.950Z,99.90
2018-09-11T07:32:16.625Z,99.90
2018-09-11T07:34:44.351Z,99.90
2018-09-11T07:37:12.086Z,99.90
2018-09-11T07:39:39.718Z,99.90
2018-09-11T07:42:08.394Z,99.90
2018-09-11T07:44:36.087Z,99.90
2018-09-11T07:47:03.743Z,99.90
2018-09-11T07:49:31.421Z,99.90
2018-09-11T07:52:00.199Z,99.90
2018-09-11T07:54:27.837Z,99.90
2018-09-11T07:56:55.579Z,99.90
2018-09-11T07:59:23.266Z,99.90
2018-09-11T08:01:50.867Z,99.90
2018-09-11T08:04:18.536Z,99.90
2018-09-11T08:06:46.227Z,99.90
2018-09-11T08:09:13.893Z,99.90
2018-09-11T08:11:41.640Z,99.90
2018-09-11T08:14:10.338Z,99.90
2018-09-11T08:16:38.067Z,99.90
2018-09-11T08:19:05.843Z,99.90
2018-09-11T08:21:33.551Z,99.90
2018-09-11T08:24:01.187Z,99.90
2018-09-11T08:26:28.866Z,99.90
2018-09-11T08:28:56.639Z,99.90
2018-09-11T08:31:24.331Z,99.90
2018-09-11T08:33:52.062Z,99.90
2018-09-11T08:36:19.775Z,99.90
2018-09-11T08:38:47.407Z,99.90
2018-09-11T08:41:15.071Z,99.90
2018-09-11T08:43:42.694Z,99.90
2018-09-11T08:46:10.498Z,99.90
2018-09-11T08:48:38.444Z,99.90
2018-09-11T08:51:09.314Z,99.90
2018-09-11T08:53:37.779Z,99.90
2018-09-11T08:56:05.506Z,99.90
2018-09-11T08:58:33.353Z,99.90
2018-09-11T09:01:01.003Z,99.90
2018-09-11T09:03:28.659Z,99.90
2018-09-11T09:05:56.705Z,99.90
2018-09-11T09:08:24.400Z,99.90
2018-09-11T09:10:52.107Z,99.90
2018-09-11T09:13:20.308Z,99.90
2018-09-11T09:15:48.063Z,99.90
2018-09-11T09:18:15.650Z,99.90
2018-09-11T09:20:43.307Z,99.90
2018-09-11T09:23:10.986Z,99.90
2018-09-11T09:25:38.655Z,99.90
2018-09-11T09:28:06.383Z,99.90
2018-09-11T09:30:34.035Z,99.90
2018-09-11T09:33:01.694Z,99.90
2018-09-11T09:35:29.379Z,99.90
2018-09-11T09:37:57.116Z,99.90
2018-09-11T09:40:24.845Z,99.90
2018-09-11T09:42:52.562Z,99.90
2018-09-11T09:45:20.215Z,99.90
2018-09-11T09:47:47.961Z,99.90
2018-09-11T09:50:15.611Z,99.90
2018-09-11T09:52:43.508Z,99.90
2018-09-11T09:55:11.236Z,99.90
2018-09-11T09:57:38.855Z,99.90
2018-09-11T10:00:06.770Z,99.90
2018-09-11T10:02:34.435Z,99.90
2018-09-11T10:05:02.114Z,99.90
2018-09-11T10:07:29.837Z,99.90
2018-09-11T10:09:57.529Z,99.90
2018-09-11T10:12:25.191Z,99.90
2018-09-11T10:14:52.906Z,99.90
2018-09-11T10:17:20.544Z,99.90
2018-09-11T10:19:48.251Z,99.90
2018-09-11T10:22:15.918Z,99.90
2018-09-11T10:24:43.604Z,99.90
2018-09-11T10:27:11.714Z,99.90
2018-09-11T10:29:39.368Z,99.90
2018-09-11T10:32:07.099Z,99.90
2018-09-11T10:34:34.782Z,99.90
2018-09-11T10:37:02.449Z,99.90
2018-09-11T10:39:30.169Z,99.90
2018-09-11T10:41:57.840Z,99.90
2018-09-11T10:44:25.566Z,99.90
2018-09-11T10:46:53.291Z,99.90
2018-09-11T10:49:20.969Z,99.90
2018-09-11T10:51:48.681Z,99.90
2018-09-11T10:54:16.278Z,99.90
2018-09-11T10:56:43.971Z,99.90
2018-09-11T10:59:11.685Z,99.90
2018-09-11T11:01:39.379Z,99.90
2018-09-11T11:04:07.234Z,99.90
2018-09-11T11:06:34.936Z,99.90
2018-09-11T11:09:02.742Z,99.90
2018-09-11T11:11:30.390Z,99.90
2018-09-11T11:13:58.114Z,99.90
2018-09-11T11:16:25.799Z,99.90
2018-09-11T11:18:53.463Z,99.90
2018-09-11T11:21:21.137Z,99.90
2018-09-11T11:23:48.814Z,99.90
2018-09-11T11:26:16.523Z,99.90
2018-09-11T11:28:44.171Z,99.90
2018-09-11T11:31:11.891Z,99.90
2018-09-11T11:33:39.595Z,99.90
2018-09-11T11:36:07.401Z,99.90
2018-09-11T11:38:35.011Z,99.90
2018-09-11T11:41:02.758Z,99.90
2018-09-11T11:43:30.476Z,99.90
2018-09-11T11:45:58.139Z,99.90
2018-09-11T11:48:25.813Z,99.20
2018-09-11T11:50:53.772Z,99.10
2018-09-11T11:53:21.572Z,98.70
2018-09-11T11:55:49.247Z,98.50
2018-09-11T11:58:16.933Z,97.70
2018-09-11T12:00:45.810Z,97.60
2018-09-11T12:03:13.427Z,97.00
2018-09-11T12:05:41.094Z,93.90
2018-09-11T12:08:08.823Z,94.50
2018-09-11T12:10:36.455Z,95.30
2018-09-11T12:13:04.158Z,97.20
2018-09-11T12:15:31.883Z,94.70
2018-09-11T12:17:59.590Z,97.30
2018-09-11T12:20:27.193Z,93.70
2018-09-11T12:22:54.907Z,93.30
2018-09-11T12:25:22.951Z,92.50
2018-09-11T12:27:50.626Z,90.10
2018-09-11T12:30:18.497Z,89.70
2018-09-11T12:32:46.283Z,84.20
2018-09-11T12:35:14.248Z,73.50
2018-09-11T12:37:42.087Z,84.10
2018-09-11T12:40:10.151Z,77.90
2018-09-11T12:42:37.915Z,79.20
2018-09-11T12:45:05.684Z,79.70
2018-09-11T12:47:33.671Z,81.20
2018-09-11T12:50:01.132Z,78.90
2018-09-11T12:52:28.846Z,80.50
2018-09-11T12:54:56.495Z,78.50
2018-09-11T12:57:24.147Z,79.00
2018-09-11T12:59:51.896Z,78.80
2018-09-11T13:02:19.684Z,77.20
2018-09-11T13:04:47.382Z,75.60
2018-09-11T13:07:15.039Z,75.30
2018-09-11T13:09:42.767Z,76.20
2018-09-11T13:12:10.442Z,78.00
2018-09-11T13:14:38.123Z,77.20
2018-09-11T13:17:05.822Z,77.10
2018-09-11T13:19:33.535Z,72.20
2018-09-11T13:22:01.235Z,72.60
2018-09-11T13:24:28.910Z,72.40
2018-09-11T13:26:56.540Z,76.10
2018-09-11T13:29:24.202Z,74.70
2018-09-11T13:31:51.890Z,70.30
2018-09-11T13:34:19.646Z,75.70
2018-09-11T13:36:47.343Z,74.30
2018-09-11T13:39:14.979Z,73.60
2018-09-11T13:41:42.619Z,69.90
2018-09-11T13:44:10.283Z,72.70
2018-09-11T13:46:37.936Z,72.80
2018-09-11T13:49:05.656Z,71.90
2018-09-11T13:51:33.299Z,68.50
2018-09-11T13:54:00.930Z,73.10
2018-09-11T13:56:28.592Z,71.20
2018-09-11T13:58:56.507Z,71.00
2018-09-11T14:01:24.245Z,72.60
2018-09-11T14:03:51.862Z,76.10
2018-09-11T14:06:19.562Z,72.40
2018-09-11T14:08:47.227Z,70.20
2018-09-11T14:11:15.003Z,71.90
2018-09-11T14:13:42.675Z,66.30
2018-09-11T14:16:10.390Z,67.20
2018-09-11T14:18:38.111Z,73.40
2018-09-11T14:21:06.095Z,66.80
2018-09-11T14:23:33.735Z,64.20
2018-09-11T14:26:01.504Z,65.30
2018-09-11T14:28:29.207Z,73.90
2018-09-11T14:30:56.829Z,69.60
2018-09-11T14:33:24.494Z,72.00
2018-09-11T14:35:52.370Z,65.10
2018-09-11T14:38:20.039Z,67.40
2018-09-11T14:40:47.712Z,68.30
2018-09-11T14:43:15.355Z,66.30
2018-09-11T14:45:43.034Z,68.10
2018-09-11T14:48:10.755Z,71.50
2018-09-11T14:50:38.487Z,67.90
2018-09-11T14:53:06.243Z,73.40
2018-09-11T14:55:33.925Z,64.50
2018-09-11T14:58:01.585Z,68.80
2018-09-11T15:00:29.284Z,61.50
2018-09-11T15:02:56.974Z,70.60
2018-09-11T15:05:24.699Z,64.60
2018-09-11T15:07:52.408Z,62.00
2018-09-11T15:10:20.009Z,66.40
2018-09-11T15:12:47.644Z,70.70
2018-09-11T15:15:15.357Z,72.90
2018-09-11T15:17:44.107Z,67.20
2018-09-11T15:20:11.923Z,68.60
2018-09-11T15:22:39.721Z,68.70
2018-09-11T15:25:10.724Z,75.50
2018-09-11T15:27:38.411Z,68.50
2018-09-11T15:30:06.071Z,61.90
2018-09-11T15:32:33.791Z,67.30
2018-09-11T15:35:01.477Z,64.60
2018-09-11T15:37:29.128Z,64.00
2018-09-11T15:39:56.864Z,64.00
2018-09-11T15:42:24.515Z,62.20
2018-09-11T15:44:52.181Z,59.70
2018-09-11T15:47:19.842Z,62.90
2018-09-11T15:49:48.535Z,62.60
2018-09-11T15:52:16.207Z,63.90
2018-09-11T15:54:43.875Z,57.20
2018-09-11T15:57:11.522Z,58.00
2018-09-11T15:59:39.210Z,59.30
2018-09-11T16:02:06.927Z,60.20
2018-09-11T16:04:34.583Z,63.30
2018-09-11T16:07:02.273Z,65.00
2018-09-11T16:09:30.983Z,57.90
2018-09-11T16:11:58.685Z,59.60
2018-09-11T16:14:26.353Z,62.60
2018-09-11T16:16:54.027Z,59.20
2018-09-11T16:19:21.663Z,60.40
2018-09-11T16:21:49.454Z,63.50
2018-09-11T16:24:17.114Z,63.10
2018-09-11T16:26:44.795Z,62.70
2018-09-11T16:29:12.454Z,68.60
2018-09-11T16:31:41.055Z,65.50
2018-09-11T16:34:08.742Z,62.50
2018-09-11T16:36:36.415Z,63.10
2018-09-11T16:39:06.847Z,68.80
2018-09-11T16:41:34.563Z,62.90
2018-09-11T16:44:02.374Z,61.60
2018-09-11T16:46:33.501Z,63.00
2018-09-11T16:49:01.197Z,67.00
2018-09-11T16:51:28.900Z,69.00
2018-09-11T16:53:56.641Z,66.10
2018-09-11T16:56:24.325Z,67.20
2018-09-11T16:58:51.969Z,68.60
2018-09-11T17:01:19.598Z,66.50
2018-09-11T17:03:47.306Z,60.90
2018-09-11T17:06:14.990Z,64.50
2018-09-11T17:08:42.906Z,63.30
2018-09-11T17:11:10.562Z,66.70
2018-09-11T17:13:38.243Z,62.30
2018-09-11T17:16:05.927Z,65.40
2018-09-11T17:18:33.674Z,68.20
2018-09-11T17:21:01.342Z,68.90
2018-09-11T17:23:29.040Z,63.50
2018-09-11T17:25:56.707Z,67.50
2018-09-11T17:28:24.415Z,70.90
2018-09-11T17:30:52.107Z,69.80
2018-09-11T17:33:19.752Z,71.00
2018-09-11T17:35:47.521Z,70.00
2018-09-11T17:38:15.211Z,73.00
2018-09-11T17:40:42.951Z,73.60
2018-09-11T17:43:10.571Z,69.20
2018-09-11T17:45:38.364Z,68.20
2018-09-11T17:48:06.092Z,74.40
2018-09-11T17:50:33.807Z,71.90
2018-09-11T17:53:01.547Z,72.50
2018-09-11T17:55:29.266Z,67.30
2018-09-11T17:57:56.935Z,68.80
2018-09-11T18:00:24.691Z,71.30
2018-09-11T18:02:52.428Z,73.50
2018-09-11T18:05:20.091Z,70.20
2018-09-11T18:07:48.195Z,74.00
2018-09-11T18:10:16.808Z,76.90
2018-09-11T18:12:44.543Z,76.30
2018-09-11T18:15:12.192Z,74.00
2018-09-11T18:17:39.887Z,71.80
2018-09-11T18:20:07.651Z,80.00
2018-09-11T18:22:35.400Z,82.80
2018-09-11T18:25:03.070Z,82.00
2018-09-11T18:27:30.891Z,85.30
2018-09-11T18:29:58.730Z,85.10
2018-09-11T18:32:26.383Z,85.60
2018-09-11T18:34:54.083Z,86.00
2018-09-11T18:37:21.975Z,87.60
2018-09-11T18:39:49.780Z,87.50
2018-09-11T18:42:18.255Z,89.60
2018-09-11T18:44:46.146Z,90.10
2018-09-11T18:47:14.020Z,89.70
2018-09-11T18:49:42.152Z,88.30
2018-09-11T18:52:10.731Z,89.20
2018-09-11T18:54:39.295Z,88.70
2018-09-11T18:57:07.840Z,89.10
2018-09-11T18:59:35.752Z,88.00
2018-09-11T19:02:04.509Z,88.70
2018-09-11T19:04:32.609Z,89.90
2018-09-11T19:07:00.815Z,90.30
2018-09-11T19:09:29.370Z,90.50
2018-09-11T19:11:58.022Z,90.20
2018-09-11T19:14:27.105Z,90.30
2018-09-11T19:16:55.850Z,90.90
2018-09-11T19:19:23.915Z,91.20
2018-09-11T19:21:51.878Z,91.70
2018-09-11T19:24:20.118Z,91.90
2018-09-11T19:26:49.048Z,92.60
2018-09-11T19:29:17.382Z,92.10
2018-09-11T19:31:45.684Z,92.10
2018-09-11T19:34:13.941Z,92.50
2018-09-11T19:36:41.855Z,92.10
2018-09-11T19:39:09.791Z,92.40
2018-09-11T19:41:37.702Z,92.90
2018-09-11T19:44:06.557Z,92.50
2018-09-11T19:46:34.413Z,93.00
2018-09-11T19:49:04.707Z,92.80
2018-09-11T19:51:33.501Z,93.10
2018-09-11T19:54:02.201Z,93.50
2018-09-11T19:56:31.564Z,93.80
2018-09-11T19:59:00.159Z,94.00
2018-09-11T20:01:28.090Z,94.10
2018-09-11T20:03:56.311Z,94.30
2018-09-11T20:06:26.087Z,94.70
2018-09-11T20:08:53.770Z,94.70
2018-09-11T20:11:22.349Z,94.80
2018-09-11T20:13:50.131Z,95.40
2018-09-11T20:16:17.947Z,95.40
2018-09-11T20:18:45.794Z,95.60
2018-09-11T20:21:13.629Z,95.30
2018-09-11T20:23:41.473Z,95.40
2018-09-11T20:26:09.119Z,95.60
2018-09-11T20:28:36.928Z,96.90
2018-09-11T20:31:04.767Z,97.20
2018-09-11T20:33:32.436Z,97.90
2018-09-11T20:36:00.317Z,98.00
2018-09-11T20:38:27.974Z,98.20
2018-09-11T20:40:55.639Z,97.90
2018-09-11T20:43:23.426Z,98.70
2018-09-11T20:45:51.214Z,99.40
2018-09-11T20:48:18.853Z,99.70
2018-09-11T20:50:46.571Z,99.90
2018-09-11T20:53:14.359Z,99.90
2018-09-11T20:55:42.036Z,99.90
2018-09-11T20:58:09.777Z,99.90
2018-09-11T21:00:37.456Z,99.90
2018-09-11T21:03:05.168Z,99.90
2018-09-11T21:05:32.911Z,99.90
2018-09-11T21:23:30.976Z,99.90
2018-09-11T21:25:58.615Z,99.90
2018-09-11T21:28:26.283Z,99.90
2018-09-11T21:30:54.027Z,99.90
2018-09-11T21:33:21.645Z,99.90
2018-09-11T21:35:49.317Z,99.90
2018-09-11T21:38:17.005Z,99.90
2018-09-11T21:40:44.724Z,99.90
2018-09-11T21:43:12.342Z,99.90
2018-09-11T21:45:40.009Z,99.90
2018-09-11T21:48:08.137Z,99.90
2018-09-11T21:50:36.465Z,99.90
2018-09-11T21:53:04.280Z,99.90
2018-09-11T21:55:32.448Z,99.90
2018-09-11T21:58:03.549Z,99.90
2018-09-11T22:00:31.272Z,99.90
2018-09-11T22:03:03.271Z,99.90
2018-09-11T22:05:31.210Z,99.90
2018-09-11T22:07:58.859Z,99.90
2018-09-11T22:10:26.575Z,99.90
2018-09-11T22:12:54.267Z,99.90
2018-09-11T22:15:21.980Z,99.90
2018-09-11T22:17:49.659Z,99.90
2018-09-11T22:20:17.359Z,99.90
2018-09-11T22:22:45.075Z,99.90
2018-09-11T22:25:12.722Z,99.90
2018-09-11T22:27:40.398Z,99.90
2018-09-11T22:30:08.106Z,99.90
2018-09-11T22:32:35.879Z,99.90
2018-09-11T22:35:03.568Z,99.90
2018-09-11T22:37:31.263Z,99.90
2018-09-11T22:39:58.935Z,99.90
2018-09-11T22:42:26.554Z,99.90
2018-09-11T22:44:54.202Z,99.90
2018-09-11T22:47:21.923Z,99.90
2018-09-11T22:49:49.584Z,99.90
2018-09-11T22:52:17.290Z,99.90
2018-09-11T22:54:44.953Z,99.90
2018-09-11T22:57:12.681Z,99.90
2018-09-11T22:59:40.359Z,99.90
2018-09-11T23:02:08.036Z,99.90
2018-09-11T23:04:35.730Z,99.90
2018-09-11T23:07:03.415Z,99.90
2018-09-11T23:09:31.116Z,99.90
2018-09-11T23:11:58.816Z,99.90
2018-09-11T23:14:26.482Z,99.90
2018-09-11T23:16:54.199Z,99.90
2018-09-11T23:19:21.971Z,99.90
2018-09-11T23:21:49.656Z,99.90
2018-09-11T23:24:17.427Z,99.90
2018-09-11T23:26:45.091Z,99.90
2018-09-11T23:29:12.727Z,99.90
2018-09-11T23:31:40.488Z,99.90
2018-09-11T23:34:08.127Z,99.90
2018-09-11T23:36:35.776Z,99.90
2018-09-11T23:39:05.183Z,99.90
2018-09-11T23:41:32.944Z,99.90
2018-09-11T23:44:00.682Z,99.90
2018-09-11T23:46:28.385Z,99.90
2018-09-11T23:48:56.267Z,99.90
2018-09-11T23:51:23.970Z,99.90
2018-09-11T23:53:51.642Z,99.90
2018-09-11T23:56:19.331Z,99.90
2018-09-11T23:58:47.013Z,99.90
